Daybreak2
, South Jordan
Last Weather Update:10/30/2011 11:00:00 PM
Date
ETo
ETc
Rain
Irrigation
Req
Temp
Max
Temp
Min
Temp
Avg
Avg RH
Avg Wind
Avg Solar
inches
inches
incehs
inches
F
F
F
%
%
watts/m2
9/1/2011 0.24" 0.17" 0.02" 0.15" 77.8° 56.2° 69.6° 33.2% 6.7 MPH 270.7w/m2
9/2/2011 0.21" 0.15" 0.00" 0.15" 76.4° 54.3° 66.7° 33.7% 5.3 MPH 266.3w/m2
9/3/2011 0.22" 0.15" 0.03" 0.12" 79.3° 54.2° 68.3° 25.6% 5.3 MPH 267.5w/m2
9/4/2011 0.22" 0.15" 0.00" 0.15" 84.7° 56.6° 71.1° 25.4% 5.0 MPH 265.0w/m2
9/5/2011 0.18" 0.12" 0.06" 0.06" 80.0° 62.8° 70.5° 33.5% 6.4 MPH 135.6w/m2
9/6/2011 0.21" 0.14" 0.01" 0.13" 76.1° 58.9° 68.4° 47.2% 6.7 MPH 243.7w/m2
9/7/2011 0.20" 0.14" 0.01" 0.13" 78.7° 55.6° 68.8° 39.7% 5.3 MPH 250.9w/m2
9/8/2011 0.21" 0.14" 0.00" 0.14" 78.9° 60.5° 69.5° 34.2% 5.9 MPH 248.1w/m2
9/9/2011 0.20" 0.14" 0.00" 0.14" 81.6° 59.6° 69.6° 37.6% 5.4 MPH 229.2w/m2
9/10/2011 0.21" 0.14" 0.01" 0.13" 80.3° 58.2° 68.3° 42.4% 6.5 MPH 231.0w/m2
9/11/2011 0.17" 0.11" 0.00" 0.11" 77.1° 60.0° 65.9° 50.5% 8.4 MPH 163.6w/m2
9/12/2011 0.19" 0.13" 0.02" 0.11" 76.4° 56.7° 65.8° 50.3% 7.8 MPH 224.6w/m2
9/13/2011 0.18" 0.12" 0.00" 0.12" 77.9° 56.8° 67.1° 38.9% 5.7 MPH 208.6w/m2
9/14/2011 0.19" 0.12" 0.00" 0.12" 78.5° 55.3° 66.7° 43.5% 5.4 MPH 235.3w/m2
9/15/2011 0.17" 0.11" 0.02" 0.09" 76.9° 55.9° 65.8° 50.8% 6.2 MPH 216.1w/m2
9/16/2011 0.09" 0.06" 0.35" -0.29" 68.9° 54.8° 60.4° 69.6% 8.1 MPH 103.3w/m2
9/17/2011 0.14" 0.09" 0.10" -0.01" 69.6° 52.0° 60.3° 65.0% 6.1 MPH 212.3w/m2
9/18/2011 0.17" 0.11" 0.00" 0.11" 73.5° 51.9° 62.5° 48.9% 5.1 MPH 234.2w/m2
9/19/2011 0.19" 0.12" 0.00" 0.12" 79.1° 53.7° 65.8° 40.7% 6.5 MPH 231.6w/m2
9/20/2011 0.19" 0.12" 0.01" 0.11" 74.7° 56.2° 66.1° 35.5% 5.6 MPH 230.1w/m2
9/21/2011 0.19" 0.12" 0.00" 0.12" 75.7° 52.8° 65.1° 39.3% 6.2 MPH 229.7w/m2
9/22/2011 0.20" 0.12" 0.00" 0.12" 78.8° 51.9° 65.4° 33.0% 6.0 MPH 231.5w/m2
9/23/2011 0.21" 0.13" 0.00" 0.13" 81.2° 54.6° 67.1° 27.3% 6.5 MPH 228.5w/m2
9/24/2011 0.20" 0.12" 0.00" 0.12" 83.3° 54.1° 67.8° 26.9% 5.7 MPH 229.1w/m2
9/25/2011 0.21" 0.13" 0.00" 0.13" 82.8° 56.9° 69.5° 25.7% 6.9 MPH 209.3w/m2
9/26/2011 0.19" 0.12" 0.01" 0.11" 76.1° 58.8° 69.0° 34.6% 5.9 MPH 214.7w/m2
9/27/2011 0.19" 0.11" 0.00" 0.11" 82.4° 54.1° 67.9° 37.0% 5.5 MPH 215.7w/m2
9/28/2011 0.20" 0.12" 0.00" 0.12" 83.5° 58.3° 70.3° 30.4% 6.0 MPH 213.7w/m2
9/29/2011 0.19" 0.12" 0.00" 0.12" 82.5° 56.1° 69.7° 31.2% 5.4 MPH 213.9w/m2
9/30/2011 0.21" 0.13" 0.01" 0.12" 86.2° 58.2° 71.9° 27.4% 6.4 MPH 204.0w/m2
Totals: 5.78" 3.75" 0.66" 3.09" 86.2° 51.9° 67.4° 38.6% 6.1 MPH 221.9w/m2